Key West NAF, FL

7:07 AM EDT on September 20, 2014 (GMT -0400)
Key West International | Change Station
CLOSE
Current Station
Airport
Location: Key West,
Elevation: 0 ft
Nearby Weather Stations

Elev 0 ft 24.56 °N, 81.75 °W | Updated 14 minutes ago

Partly Cloudy
Partly Cloudy
81 °F
Feels Like 87 °F
N
4
Wind Variable Wind from ENE

Today
High -- | Low -- °F
--% Chance of Precip.
Yesterday
High -- | Low -- °F
Precip. -- in
7:14 AM 7:25 PM
Waning Crescent, 13% visible
Pressure 29.91 in
Visibility 10.0 miles
Clouds Few 2800 ft
Heat Index 87 °F
Dew Point 76 °F
Humidity 85%
Rainfall 0.00 in
Snow Depth Not available.
UV 0 out of 12
Pollen 3.30 out of 12
Air Quality Not available.
Flu Activity Not available.
METAR KEYW 201053Z 06003KT 10SM FEW028 27/24 A2991 RMK AO2 SLP128 T02720244

More Conditions Fewer Conditions

Pressure 29.91 in
Visibility 10.0 miles
Clouds Few 2800 ft
Heat Index 87 °F
Dew Point 76 °F
Humidity 85%
Rainfall 0.00 in
Snow Depth Not available.
UV 0 out of 12
Pollen 3.30 out of 12
Air Quality Not available.
Flu Activity Not available.
METAR KEYW 201053Z 06003KT 10SM FEW028 27/24 A2991 RMK AO2 SLP128 T02720244

More Conditions Fewer Conditions

Nowcast | as of 7:06 am EDT on September 20, 2014

Through 830 am...isolated showers and thunderstorms will drift to the east-northeast across Hawk Channel and the Florida Straits...mainly south of the middle and upper Florida Keys. Mariners and boaters should prepare for brief spells of poor visibility...a few lightning strikes...and locally gusty winds. A few locations in the island chain there may receive brief light to moderate rains. Lighter rains will be found in the Gulf waters offshore from Mainland Monroe County.

×

10-Day Weather Forecast

Almanac

Astronomy

Sep. 20, 2014 Rise Set
Actual Time 7:14 AM EDT 7:25 PM EDT
Civil Twilight 6:51 AM EDT 7:47 PM EDT
Nautical Twilight 6:25 AM EDT 8:14 PM EDT
Astronomical Twilight 5:58 AM EDT 8:41 PM EDT
Moon 4:09 AM EDT 5:13 PM EDT
Length of Visible Light 12h 56m
Length of Day
12h 10m
Tomorrow will be 1m 25s shorter.
Waning Crescent, 13% of the Moon is Illuminated
Today
Waning Crescent
Sep 24
New
Oct 1
First Quarter
Oct 8
Full
Oct 15
Last Quarter

Today's Extremes

State Highs State Lows

Community

WunderPhotos

Upload Photos

1,754,829 photos uploaded!

WunderBlogs® & News

Nearby

Snow Depth

Station Depth Elevation
No new snow has been reported.

Earthquake Activity

City Distance Mag. Time & Date
No recent earthquake activity has been reported nearby.
Minimum magnitude displayed is 2.5.

Coastal Water Temperatures

Place Temperature
No Stations Reporting

Nearby Weather Stations